createdAt,value
2022-11-22T00:01:20.676Z,99168.41
2022-11-22T00:03:49.004Z,99161.76
2022-11-22T00:06:17.427Z,99163.55
2022-11-22T00:08:45.810Z,99160.48
2022-11-22T00:11:14.137Z,99158.35
2022-11-22T00:13:42.446Z,99151.98
2022-11-22T00:16:10.773Z,99152.30
2022-11-22T00:18:39.103Z,99151.11
2022-11-22T00:21:08.792Z,99153.55
2022-11-22T00:23:37.274Z,99145.83
2022-11-22T00:26:07.207Z,99147.60
2022-11-22T00:28:35.654Z,99140.57
2022-11-22T00:31:03.992Z,99138.59
2022-11-22T00:33:32.388Z,99135.91
2022-11-22T00:36:00.700Z,99131.83
2022-11-22T00:38:29.340Z,99120.19
2022-11-22T00:40:57.754Z,99112.61
2022-11-22T00:44:09.187Z,99109.69
2022-11-22T00:46:38.077Z,99104.59
2022-11-22T00:49:06.535Z,99112.66
2022-11-22T00:51:34.962Z,99110.45
2022-11-22T00:54:03.381Z,99115.29
2022-11-22T00:56:32.239Z,99116.85
2022-11-22T00:59:00.773Z,99109.45
2022-11-22T01:01:29.229Z,99108.85
2022-11-22T01:03:57.724Z,99103.55
2022-11-22T01:06:26.149Z,99106.08
2022-11-22T01:08:54.604Z,99104.15
2022-11-22T01:11:23.036Z,99101.04
2022-11-22T01:13:51.424Z,99103.53
2022-11-22T01:16:20.008Z,99115.46
2022-11-22T01:18:48.417Z,99117.61
2022-11-22T01:21:16.744Z,99116.34
2022-11-22T01:23:45.101Z,99112.28
2022-11-22T01:26:13.934Z,99112.02
2022-11-22T01:28:42.297Z,99116.39
2022-11-22T01:31:10.647Z,99115.97
2022-11-22T01:33:39.013Z,99110.94
2022-11-22T01:36:10.599Z,99108.25
2022-11-22T01:38:38.913Z,99105.35
2022-11-22T01:41:07.326Z,99105.80
2022-11-22T01:43:35.769Z,99103.80
2022-11-22T01:46:09.901Z,99104.31
2022-11-22T01:48:50.058Z,99099.04
2022-11-22T01:51:46.773Z,99094.30
2022-11-22T01:54:22.584Z,99082.20
2022-11-22T01:56:58.856Z,99074.92
2022-11-22T01:59:32.889Z,99075.18
2022-11-22T02:02:02.535Z,99071.72
2022-11-22T02:04:32.899Z,99070.02
2022-11-22T02:07:27.233Z,99067.94
2022-11-22T02:09:55.615Z,99063.59
2022-11-22T02:12:31.959Z,99069.80
2022-11-22T02:15:00.637Z,99073.41
2022-11-22T02:17:29.132Z,99079.04
2022-11-22T02:19:57.482Z,99082.22
2022-11-22T02:22:37.225Z,99080.29
2022-11-22T02:25:26.218Z,99074.52
2022-11-22T02:27:54.587Z,99075.17
2022-11-22T02:30:23.704Z,99067.17
2022-11-22T02:32:52.074Z,99068.10
2022-11-22T02:35:27.117Z,99063.30
2022-11-22T02:38:19.184Z,99056.64
2022-11-22T02:40:57.261Z,99047.02
2022-11-22T02:43:31.568Z,99048.32
2022-11-22T02:46:09.228Z,99035.41
2022-11-22T02:48:45.117Z,99023.57
2022-11-22T02:51:19.961Z,99014.20
2022-11-22T02:53:50.805Z,99009.00
2022-11-22T02:56:19.780Z,99005.34
2022-11-22T02:58:48.179Z,99014.32
2022-11-22T03:01:16.556Z,99027.27
2022-11-22T03:03:45.094Z,99043.34
2022-11-22T03:06:13.448Z,99046.90
2022-11-22T03:08:41.709Z,99039.69
2022-11-22T03:11:10.118Z,99032.29
2022-11-22T03:13:38.437Z,99029.38
2022-11-22T03:16:07.330Z,99031.67
2022-11-22T03:18:37.318Z,99029.20
2022-11-22T03:21:09.808Z,99033.55
2022-11-22T03:23:38.315Z,99033.54
2022-11-22T03:26:09.921Z,99040.15
2022-11-22T03:28:38.489Z,99048.68
2022-11-22T03:31:08.181Z,99048.12
2022-11-22T03:33:36.516Z,99050.86
2022-11-22T03:36:05.594Z,99045.30
2022-11-22T03:38:35.932Z,99043.73
2022-11-22T03:41:04.444Z,99043.83
2022-11-22T03:43:32.842Z,99042.00
2022-11-22T03:46:01.614Z,99035.66
2022-11-22T03:48:30.639Z,99034.77
2022-11-22T03:51:07.009Z,99031.45
2022-11-22T03:53:35.365Z,99028.20
2022-11-22T03:56:04.940Z,99027.44
2022-11-22T03:58:34.274Z,99027.05
2022-11-22T04:01:02.885Z,99026.08
2022-11-22T04:03:31.542Z,99027.88
2022-11-22T04:05:59.974Z,99024.23
2022-11-22T04:08:28.416Z,99025.52
2022-11-22T04:10:56.789Z,99027.10
2022-11-22T04:13:47.912Z,99028.58
2022-11-22T04:16:16.366Z,99025.96
2022-11-22T04:18:44.711Z,99013.20
2022-11-22T04:21:31.622Z,99013.80
2022-11-22T04:24:26.716Z,99014.27
2022-11-22T04:26:56.173Z,99003.63
2022-11-22T04:29:24.765Z,99002.83
2022-11-22T04:32:12.415Z,99000.99
2022-11-22T04:34:40.801Z,98998.90
2022-11-22T04:37:09.134Z,98998.90
2022-11-22T04:39:37.594Z,98993.66
2022-11-22T04:42:24.844Z,98990.48
2022-11-22T04:44:53.203Z,98989.36
2022-11-22T04:47:40.375Z,98990.30
2022-11-22T04:50:29.341Z,98995.14
2022-11-22T04:52:58.136Z,98999.39
2022-11-22T04:55:26.568Z,99004.96
2022-11-22T04:57:59.626Z,99006.95
2022-11-22T05:00:30.333Z,99000.11
2022-11-22T05:02:59.594Z,98999.73
2022-11-22T05:05:28.724Z,99000.88
2022-11-22T05:08:00.440Z,98994.16
2022-11-22T05:10:28.895Z,98992.56
2022-11-22T05:12:57.358Z,98990.45
2022-11-22T05:15:25.762Z,98986.23
2022-11-22T05:17:54.133Z,98983.09
2022-11-22T05:20:22.484Z,98990.92
2022-11-22T05:23:09.733Z,98994.58
2022-11-22T05:25:38.117Z,98995.02
2022-11-22T05:28:06.502Z,98998.27
2022-11-22T05:30:34.789Z,98999.76
2022-11-22T05:33:03.134Z,99002.48
2022-11-22T05:35:31.822Z,99007.10
2022-11-22T05:38:00.227Z,99007.69
2022-11-22T05:40:28.555Z,99015.39
2022-11-22T05:42:59.316Z,99021.83
2022-11-22T05:45:27.666Z,99020.89
2022-11-22T05:47:56.885Z,99015.79
2022-11-22T05:50:25.329Z,99015.99
2022-11-22T05:52:53.904Z,99018.80
2022-11-22T05:55:22.352Z,99020.29
2022-11-22T05:57:50.709Z,99016.64
2022-11-22T06:00:19.311Z,99015.22
2022-11-22T06:02:47.851Z,99014.19
2022-11-22T06:05:16.502Z,99013.02
2022-11-22T06:07:45.790Z,99021.83
2022-11-22T06:10:14.268Z,99024.95
2022-11-22T06:12:42.658Z,99024.87
2022-11-22T06:15:11.336Z,99028.85
2022-11-22T06:17:39.660Z,99034.92
2022-11-22T06:20:09.270Z,99034.77
2022-11-22T06:22:37.965Z,99029.22
2022-11-22T06:25:07.157Z,99032.55
2022-11-22T06:27:35.543Z,99028.54
2022-11-22T06:30:04.800Z,99031.98
2022-11-22T06:32:34.876Z,99026.34
2022-11-22T06:35:04.540Z,99027.93
2022-11-22T06:37:33.003Z,99030.59
2022-11-22T06:40:01.598Z,99036.14
2022-11-22T06:42:30.350Z,99036.85
2022-11-22T06:44:58.987Z,99041.83
2022-11-22T06:47:27.944Z,99046.30
2022-11-22T06:49:56.641Z,99052.48
2022-11-22T06:52:53.771Z,99057.66
2022-11-22T06:55:49.208Z,99064.77
2022-11-22T06:58:11.456Z,99073.23
2022-11-22T07:00:40.006Z,99069.27
2022-11-22T07:03:09.226Z,99065.44
2022-11-22T07:05:38.332Z,99074.58
2022-11-22T07:08:13.494Z,99094.25
2022-11-22T07:10:43.056Z,99097.14
2022-11-22T07:13:12.166Z,99095.04
2022-11-22T07:15:40.940Z,99080.31
2022-11-22T07:20:45.091Z,99067.78
2022-11-22T07:23:15.919Z,99057.55
2022-11-22T07:25:47.349Z,99054.76
2022-11-22T07:28:16.687Z,99048.86
2022-11-22T07:30:45.775Z,99035.86
2022-11-22T07:33:15.173Z,99040.40
2022-11-22T07:35:44.247Z,99044.30
2022-11-22T07:38:13.527Z,99048.59
2022-11-22T07:40:43.175Z,99043.64
2022-11-22T07:43:11.852Z,99036.48
2022-11-22T07:45:41.145Z,99037.23
2022-11-22T07:48:10.497Z,99041.98
2022-11-22T07:50:39.242Z,99038.54
2022-11-22T07:53:10.072Z,99035.20
2022-11-22T07:55:38.782Z,99031.33
2022-11-22T07:58:07.354Z,99034.77
2022-11-22T08:00:35.979Z,99033.05
2022-11-22T08:03:04.413Z,99030.47
2022-11-22T08:05:32.928Z,99030.50
2022-11-22T08:08:01.487Z,99021.46
2022-11-22T08:10:29.913Z,99019.44
2022-11-22T08:13:00.405Z,99021.27
2022-11-22T08:15:28.788Z,99020.88
2022-11-22T08:17:57.193Z,99020.05
2022-11-22T08:20:25.777Z,99020.98
2022-11-22T08:22:54.249Z,99021.50
2022-11-22T08:25:22.594Z,99016.81
2022-11-22T08:27:50.933Z,99019.58
2022-11-22T08:30:19.464Z,99018.50
2022-11-22T08:32:48.067Z,99015.98
2022-11-22T08:35:16.510Z,99015.54
2022-11-22T08:37:44.854Z,99015.42
2022-11-22T08:40:14.223Z,99019.17
2022-11-22T08:42:42.588Z,99024.05
2022-11-22T08:45:11.154Z,99034.77
2022-11-22T08:47:39.490Z,99037.57
2022-11-22T08:50:08.652Z,99038.61
2022-11-22T08:52:37.007Z,99032.95
2022-11-22T08:55:06.074Z,99035.58
2022-11-22T08:57:34.384Z,99041.24
2022-11-22T09:00:03.814Z,99043.71
2022-11-22T09:02:32.260Z,99044.39
2022-11-22T09:05:00.763Z,99049.15
2022-11-22T09:10:18.787Z,99056.52
2022-11-22T09:12:47.307Z,99057.05
2022-11-22T09:15:15.970Z,99061.16
2022-11-22T09:17:44.628Z,99060.45
2022-11-22T09:20:13.569Z,99061.98
2022-11-22T09:22:42.092Z,99062.30
2022-11-22T09:25:10.503Z,99058.25
2022-11-22T09:27:38.919Z,99047.79
2022-11-22T09:30:08.160Z,99043.55
2022-11-22T09:32:36.667Z,99038.48
2022-11-22T09:35:05.564Z,99030.95
2022-11-22T09:37:33.899Z,99025.95
2022-11-22T09:40:02.751Z,99029.79
2022-11-22T09:42:44.524Z,99027.96
2022-11-22T09:45:44.102Z,99029.34
2022-11-22T09:48:59.282Z,99032.05
2022-11-22T09:51:37.180Z,99026.40
2022-11-22T09:54:13.697Z,99029.60
2022-11-22T09:56:44.016Z,99030.03
2022-11-22T09:59:29.710Z,99037.02
2022-11-22T10:02:59.570Z,99033.30
2022-11-22T10:05:44.977Z,99027.81
2022-11-22T10:12:23.473Z,99023.59
2022-11-22T10:15:05.036Z,99024.17
2022-11-22T10:18:06.088Z,99021.97
2022-11-22T10:20:45.703Z,99019.08
2022-11-22T10:23:24.537Z,99018.32
2022-11-22T10:26:26.915Z,99022.20
2022-11-22T10:29:16.310Z,99024.80
2022-11-22T10:32:09.474Z,99020.45
2022-11-22T10:35:06.798Z,99019.76
2022-11-22T10:37:52.112Z,99023.27
2022-11-22T10:40:28.636Z,99021.30
2022-11-22T10:43:18.904Z,99023.53
2022-11-22T10:45:55.363Z,99019.05
2022-11-22T10:48:43.943Z,99018.19
2022-11-22T10:51:27.436Z,99020.29
2022-11-22T10:54:14.334Z,99022.98
2022-11-22T10:57:03.195Z,99020.20
2022-11-22T10:59:34.816Z,99014.70
2022-11-22T11:02:26.267Z,99017.42
2022-11-22T11:04:58.643Z,99021.82
2022-11-22T11:07:27.606Z,99019.84
2022-11-22T11:10:11.191Z,99017.86
2022-11-22T11:12:57.336Z,99014.27
2022-11-22T11:15:37.712Z,99015.11
2022-11-22T11:18:18.237Z,99012.83
2022-11-22T11:20:48.012Z,99009.13
2022-11-22T11:23:16.928Z,99006.07
2022-11-22T11:25:48.341Z,99010.73
2022-11-22T11:28:22.131Z,99002.50
2022-11-22T11:31:06.641Z,99005.43
2022-11-22T11:33:39.234Z,99008.60
2022-11-22T11:36:14.073Z,99007.52
2022-11-22T11:38:42.405Z,99006.41
2022-11-22T11:41:30.312Z,99006.44
2022-11-22T11:44:01.846Z,99004.85
2022-11-22T11:46:39.380Z,99009.49
2022-11-22T11:49:17.368Z,99007.12
2022-11-22T11:51:56.106Z,99000.96
2022-11-22T11:54:30.686Z,98996.70
2022-11-22T11:57:03.879Z,98995.71
2022-11-22T11:59:38.405Z,98990.55
2022-11-22T12:02:41.748Z,98987.84
2022-11-22T12:05:13.438Z,98987.11
2022-11-22T12:07:47.974Z,98982.71
2022-11-22T12:10:41.193Z,98984.77
2022-11-22T12:13:27.435Z,98980.12
2022-11-22T12:16:09.660Z,98977.30
2022-11-22T12:18:48.925Z,98974.87
2022-11-22T12:21:42.111Z,98971.36
2022-11-22T12:27:13.094Z,98971.30
2022-11-22T12:29:45.964Z,98976.11
2022-11-22T12:32:27.471Z,98972.38
2022-11-22T12:35:16.367Z,98974.28
2022-11-22T12:38:01.246Z,98971.59
2022-11-22T12:40:41.464Z,98972.03
2022-11-22T12:43:29.340Z,98967.48
2022-11-22T12:46:10.413Z,98971.01
2022-11-22T12:48:52.426Z,98972.23
2022-11-22T12:51:40.328Z,98979.14
2022-11-22T12:54:17.253Z,98980.36
2022-11-22T12:56:55.316Z,98979.15
2022-11-22T12:59:37.759Z,98967.86
2022-11-22T13:02:29.998Z,98971.42
2022-11-22T13:05:05.902Z,98961.21
2022-11-22T13:08:11.207Z,98959.77
2022-11-22T13:10:56.613Z,98954.73
2022-11-22T13:13:28.370Z,98956.73
2022-11-22T13:16:00.390Z,98952.48
2022-11-22T13:18:34.998Z,98951.61
2022-11-22T13:21:19.592Z,98951.20
2022-11-22T13:24:17.370Z,98952.66
2022-11-22T13:26:57.677Z,98950.64
2022-11-22T13:29:33.423Z,98950.84
2022-11-22T13:32:16.606Z,98951.65
2022-11-22T13:35:12.918Z,98951.88
2022-11-22T13:37:52.380Z,98954.41
2022-11-22T13:40:33.125Z,98958.59
2022-11-22T13:43:18.013Z,98952.36
2022-11-22T13:45:59.425Z,98956.98
2022-11-22T13:48:40.390Z,98953.56
2022-11-22T13:51:20.157Z,98952.73
2022-11-22T13:53:49.791Z,98945.95
2022-11-22T13:56:27.431Z,98942.52
2022-11-22T13:59:24.091Z,98939.43
2022-11-22T14:01:52.713Z,98939.38
2022-11-22T14:04:24.834Z,98940.88
2022-11-22T14:07:10.736Z,98937.91
2022-11-22T14:09:42.338Z,98935.94
2022-11-22T14:12:10.882Z,98935.98
2022-11-22T14:14:49.775Z,98940.98
2022-11-22T14:17:42.546Z,98938.94
2022-11-22T14:20:20.381Z,98943.80
2022-11-22T14:26:41.874Z,98937.67
2022-11-22T14:29:41.703Z,98943.09
2022-11-22T14:32:19.991Z,98945.16
2022-11-22T14:35:04.135Z,98941.95
2022-11-22T14:37:32.773Z,98940.53
2022-11-22T14:40:07.471Z,98939.25
2022-11-22T14:42:40.200Z,98941.39
2022-11-22T14:45:11.687Z,98945.15
2022-11-22T14:47:52.643Z,98943.64
2022-11-22T14:50:36.439Z,98938.73
2022-11-22T14:53:34.830Z,98942.41
2022-11-22T14:56:21.392Z,98949.70
2022-11-22T14:59:16.001Z,98952.19
2022-11-22T15:01:56.712Z,98951.31
2022-11-22T15:09:23.400Z,98950.72
2022-11-22T15:10:04.634Z,98949.61
2022-11-22T15:13:07.155Z,98955.06
2022-11-22T15:57:38.261Z,98970.40
2022-11-22T16:00:21.084Z,98971.17
2022-11-22T16:02:53.960Z,98972.45
2022-11-22T16:06:07.518Z,98975.89
2022-11-22T16:08:22.349Z,98979.92
2022-11-22T16:10:51.863Z,98982.38
2022-11-22T16:13:20.388Z,98980.33
2022-11-22T16:16:20.388Z,98981.32
2022-11-22T16:18:48.993Z,98984.24
2022-11-22T16:21:17.475Z,98982.15
2022-11-22T16:23:46.913Z,98983.48
2022-11-22T16:26:22.073Z,98983.16
2022-11-22T16:28:56.847Z,98985.21
2022-11-22T16:31:31.487Z,98989.58
2022-11-22T16:34:01.758Z,98988.68
2022-11-22T16:36:30.674Z,98990.27
2022-11-22T16:38:59.797Z,98991.33
2022-11-22T16:41:29.697Z,98994.86
2022-11-22T16:44:07.863Z,98993.81
2022-11-22T16:46:36.406Z,98990.47
2022-11-22T16:49:18.200Z,98994.15
2022-11-22T16:51:50.155Z,98994.38
2022-11-22T16:54:21.059Z,98996.13
2022-11-22T16:56:49.752Z,99000.45
2022-11-22T16:59:18.271Z,98997.19
2022-11-22T17:01:46.930Z,98997.46
2022-11-22T17:04:25.405Z,98997.58
2022-11-22T17:06:54.695Z,99002.59
2022-11-22T17:09:23.389Z,99003.49
2022-11-22T17:11:52.167Z,99001.37
2022-11-22T17:14:20.912Z,98997.63
2022-11-22T17:16:49.809Z,98998.18
2022-11-22T17:19:45.366Z,99001.91
2022-11-22T17:22:07.372Z,99002.86
2022-11-22T17:24:36.256Z,99006.90
2022-11-22T17:27:05.271Z,99010.30
2022-11-22T17:29:50.729Z,99010.06
2022-11-22T17:32:20.369Z,99012.41
2022-11-22T17:34:49.033Z,99007.79
2022-11-22T17:37:17.568Z,99010.71
2022-11-22T17:39:46.941Z,99010.88
2022-11-22T17:42:17.546Z,99010.02
2022-11-22T17:44:46.260Z,99013.27
2022-11-22T17:47:15.006Z,99016.83
2022-11-22T17:49:43.958Z,99014.93
2022-11-22T17:52:12.548Z,99020.86
2022-11-22T17:54:41.498Z,99021.61
2022-11-22T17:57:10.349Z,99025.95
2022-11-22T17:59:38.949Z,99026.92
2022-11-22T18:02:09.142Z,99028.93
2022-11-22T18:04:38.316Z,99039.29
2022-11-22T18:07:06.902Z,99042.63
2022-11-22T18:09:35.445Z,99044.02
2022-11-22T18:12:04.952Z,99042.98
2022-11-22T18:14:34.719Z,99049.61
2022-11-22T18:17:03.365Z,99055.84
2022-11-22T18:19:32.082Z,99058.84
2022-11-22T18:22:00.828Z,99056.92
2022-11-22T18:24:29.553Z,99058.00
2022-11-22T18:26:58.355Z,99062.17
2022-11-22T18:29:43.157Z,99066.52
2022-11-22T18:32:12.649Z,99067.67
2022-11-22T18:34:41.923Z,99075.30
2022-11-22T18:37:10.664Z,99075.15
2022-11-22T18:39:40.487Z,99074.63
2022-11-22T18:42:16.296Z,99074.92
2022-11-22T18:44:44.943Z,99075.94
2022-11-22T18:47:13.615Z,99075.15
2022-11-22T18:49:42.178Z,99073.92
2022-11-22T18:52:13.430Z,99073.89
2022-11-22T18:54:45.537Z,99077.88
2022-11-22T18:57:14.077Z,99081.02
2022-11-22T18:59:42.715Z,99080.41
2022-11-22T19:02:11.576Z,99080.27
2022-11-22T19:04:40.195Z,99076.67
2022-11-22T19:07:08.760Z,99071.62
2022-11-22T19:09:37.467Z,99072.05
2022-11-22T19:12:07.020Z,99071.24
2022-11-22T19:14:35.771Z,99069.59
2022-11-22T19:17:05.666Z,99072.82
2022-11-22T19:19:34.568Z,99070.60
2022-11-22T19:22:03.595Z,99068.94
2022-11-22T19:24:32.405Z,99067.02
2022-11-22T19:27:01.321Z,99070.32
2022-11-22T19:29:30.393Z,99076.91
2022-11-22T19:31:59.378Z,99077.70
2022-11-22T19:34:29.146Z,99078.80
2022-11-22T19:36:57.840Z,99078.52
2022-11-22T19:39:27.341Z,99079.18
2022-11-22T19:41:55.925Z,99078.08
2022-11-22T19:44:24.490Z,99080.69
2022-11-22T19:46:52.994Z,99086.00
2022-11-22T19:49:21.522Z,99088.25
2022-11-22T19:51:50.055Z,99091.30
2022-11-22T19:54:18.682Z,99093.83
2022-11-22T19:56:47.334Z,99099.47
2022-11-22T19:59:17.322Z,99099.19
2022-11-22T20:01:46.071Z,99102.60
2022-11-22T20:04:15.747Z,99103.00
2022-11-22T20:06:49.714Z,99108.88
2022-11-22T20:09:18.977Z,99112.04
2022-11-22T20:11:47.606Z,99110.75
2022-11-22T20:14:16.652Z,99105.76
2022-11-22T20:16:45.403Z,99105.09
2022-11-22T20:19:15.425Z,99105.60
2022-11-22T20:21:44.947Z,99110.32
2022-11-22T20:24:14.391Z,99110.02
2022-11-22T20:26:44.001Z,99111.26
2022-11-22T20:29:14.135Z,99115.81
2022-11-22T20:31:43.208Z,99115.73
2022-11-22T20:34:11.914Z,99116.79
2022-11-22T20:36:40.502Z,99120.59
2022-11-22T20:39:10.688Z,99122.75
2022-11-22T20:41:40.768Z,99121.77
2022-11-22T20:44:14.965Z,99126.04
2022-11-22T20:46:44.590Z,99123.36
2022-11-22T20:49:13.121Z,99125.64
2022-11-22T20:51:42.796Z,99127.75
2022-11-22T20:54:12.077Z,99129.64
2022-11-22T20:56:40.706Z,99129.76
2022-11-22T20:59:09.563Z,99125.23
2022-11-22T21:01:38.451Z,99128.89
2022-11-22T21:04:07.241Z,99125.70
2022-11-22T21:06:35.938Z,99128.42
2022-11-22T21:09:04.624Z,99130.15
2022-11-22T21:11:33.289Z,99132.02
2022-11-22T21:14:04.060Z,99132.73
2022-11-22T21:16:39.808Z,99131.43
2022-11-22T21:19:09.475Z,99129.04
2022-11-22T21:21:38.617Z,99129.16
2022-11-22T21:24:07.986Z,99129.81
2022-11-22T21:26:36.801Z,99127.36
2022-11-22T21:29:16.034Z,99131.84
2022-11-22T21:31:45.248Z,99129.39
2022-11-22T21:34:14.797Z,99129.88
2022-11-22T21:36:43.362Z,99128.95
2022-11-22T21:39:11.908Z,99127.35
2022-11-22T21:41:41.399Z,99129.23
2022-11-22T21:44:10.986Z,99122.79
2022-11-22T21:46:40.202Z,99124.42
2022-11-22T21:49:08.789Z,99122.34
2022-11-22T21:51:37.520Z,99123.08
2022-11-22T21:54:06.552Z,99125.63
2022-11-22T21:56:35.592Z,99127.84
2022-11-22T21:59:04.294Z,99132.34
2022-11-22T22:01:33.612Z,99134.73
2022-11-22T22:04:03.592Z,99135.29
2022-11-22T22:06:32.789Z,99136.23
2022-11-22T22:13:34.787Z,99137.80
2022-11-22T22:16:12.859Z,99136.56
2022-11-22T22:18:43.226Z,99137.34
2022-11-22T22:21:13.222Z,99135.08
2022-11-22T22:23:43.559Z,99135.05
2022-11-22T22:26:16.557Z,99136.74
2022-11-22T22:28:46.077Z,99137.98
2022-11-22T22:31:24.042Z,99134.77
2022-11-22T22:33:57.672Z,99138.13
2022-11-22T22:36:27.748Z,99136.71
2022-11-22T22:38:56.369Z,99137.98
2022-11-22T22:41:25.050Z,99135.35
2022-11-22T22:43:53.609Z,99134.19
2022-11-22T22:46:27.572Z,99131.14
2022-11-22T22:48:56.715Z,99132.44
2022-11-22T22:51:32.916Z,99134.50
2022-11-22T22:54:02.562Z,99135.80
2022-11-22T22:56:32.375Z,99140.08
2022-11-22T23:05:00.738Z,99148.45
2022-11-22T23:07:29.404Z,99146.88
2022-11-22T23:09:57.999Z,99147.95
2022-11-22T23:12:27.365Z,99150.14
2022-11-22T23:14:56.262Z,99146.95
2022-11-22T23:17:25.968Z,99153.47
2022-11-22T23:19:54.518Z,99155.55
2022-11-22T23:22:25.899Z,99155.87
2022-11-22T23:24:54.671Z,99159.25
2022-11-22T23:27:23.228Z,99158.12
2022-11-22T23:29:51.773Z,99160.69
2022-11-22T23:32:20.347Z,99156.65
2022-11-22T23:34:49.114Z,99157.00
2022-11-22T23:37:17.617Z,99153.29
2022-11-22T23:39:46.141Z,99156.41
2022-11-22T23:42:16.144Z,99156.55
2022-11-22T23:44:44.647Z,99162.50
2022-11-22T23:47:13.235Z,99160.69
2022-11-22T23:49:41.762Z,99159.02
2022-11-22T23:52:10.315Z,99160.85
2022-11-22T23:54:38.882Z,99163.77
2022-11-22T23:57:07.396Z,99165.94
2022-11-22T23:59:36.012Z,99164.97
